sensor_id;sensor_type;location;lat;lon;timestamp;temperature;humidity
364;DHT22;173;48.718;9.274;2022-08-14T00:01:30;19.90;68.00
364;DHT22;173;48.718;9.274;2022-08-14T00:04:03;19.80;68.20
364;DHT22;173;48.718;9.274;2022-08-14T00:06:37;19.80;68.20
364;DHT22;173;48.718;9.274;2022-08-14T00:09:11;19.70;68.40
364;DHT22;173;48.718;9.274;2022-08-14T00:11:43;19.70;68.70
364;DHT22;173;48.718;9.274;2022-08-14T00:14:15;19.60;69.00
364;DHT22;173;48.718;9.274;2022-08-14T00:16:47;19.60;69.00
364;DHT22;173;48.718;9.274;2022-08-14T00:19:19;19.50;69.40
364;DHT22;173;48.718;9.274;2022-08-14T00:21:52;19.50;69.30
364;DHT22;173;48.718;9.274;2022-08-14T00:24:26;19.60;68.80
364;DHT22;173;48.718;9.274;2022-08-14T00:26:59;19.70;69.30
364;DHT22;173;48.718;9.274;2022-08-14T00:29:32;19.60;70.00
364;DHT22;173;48.718;9.274;2022-08-14T00:32:04;19.50;69.90
364;DHT22;173;48.718;9.274;2022-08-14T00:34:37;19.50;70.70
364;DHT22;173;48.718;9.274;2022-08-14T00:37:09;19.40;70.90
364;DHT22;173;48.718;9.274;2022-08-14T00:39:43;19.30;71.00
364;DHT22;173;48.718;9.274;2022-08-14T00:42:20;19.20;71.50
364;DHT22;173;48.718;9.274;2022-08-14T00:44:53;19.20;71.70
364;DHT22;173;48.718;9.274;2022-08-14T00:47:25;19.10;72.70
364;DHT22;173;48.718;9.274;2022-08-14T00:49:57;19.20;72.50
364;DHT22;173;48.718;9.274;2022-08-14T00:52:29;19.20;71.50
364;DHT22;173;48.718;9.274;2022-08-14T00:55:05;19.30;72.10
364;DHT22;173;48.718;9.274;2022-08-14T00:57:38;19.40;71.20
364;DHT22;173;48.718;9.274;2022-08-14T01:00:13;19.50;71.20
364;DHT22;173;48.718;9.274;2022-08-14T01:02:45;19.60;70.40
364;DHT22;173;48.718;9.274;2022-08-14T01:05:19;19.60;70.20
364;DHT22;173;48.718;9.274;2022-08-14T01:07:50;19.60;70.40
364;DHT22;173;48.718;9.274;2022-08-14T01:10:29;19.50;70.80
364;DHT22;173;48.718;9.274;2022-08-14T01:13:23;19.40;71.30
364;DHT22;173;48.718;9.274;2022-08-14T01:16:01;19.20;72.30
364;DHT22;173;48.718;9.274;2022-08-14T01:18:34;18.90;73.20
364;DHT22;173;48.718;9.274;2022-08-14T01:21:33;18.80;73.30
364;DHT22;173;48.718;9.274;2022-08-14T01:24:07;18.70;73.90
364;DHT22;173;48.718;9.274;2022-08-14T01:26:42;18.70;74.00
364;DHT22;173;48.718;9.274;2022-08-14T01:29:14;18.70;74.00
364;DHT22;173;48.718;9.274;2022-08-14T01:31:47;18.70;73.90
364;DHT22;173;48.718;9.274;2022-08-14T01:34:22;18.70;74.30
364;DHT22;173;48.718;9.274;2022-08-14T01:36:54;18.60;74.10
364;DHT22;173;48.718;9.274;2022-08-14T01:39:26;18.50;74.80
364;DHT22;173;48.718;9.274;2022-08-14T01:42:00;18.40;74.60
364;DHT22;173;48.718;9.274;2022-08-14T01:44:33;18.50;75.10
364;DHT22;173;48.718;9.274;2022-08-14T01:47:09;18.50;75.00
364;DHT22;173;48.718;9.274;2022-08-14T01:49:41;18.50;74.90
364;DHT22;173;48.718;9.274;2022-08-14T01:52:16;18.40;75.50
364;DHT22;173;48.718;9.274;2022-08-14T01:54:49;18.40;75.20
364;DHT22;173;48.718;9.274;2022-08-14T01:57:24;18.40;75.20
364;DHT22;173;48.718;9.274;2022-08-14T01:59:57;18.50;75.30
364;DHT22;173;48.718;9.274;2022-08-14T02:07:31;18.70;73.80
364;DHT22;173;48.718;9.274;2022-08-14T02:10:04;18.70;73.30
364;DHT22;173;48.718;9.274;2022-08-14T02:12:38;18.70;73.20
364;DHT22;173;48.718;9.274;2022-08-14T02:15:11;18.70;72.40
364;DHT22;173;48.718;9.274;2022-08-14T02:17:45;18.80;72.80
364;DHT22;173;48.718;9.274;2022-08-14T02:20:18;18.70;73.00
364;DHT22;173;48.718;9.274;2022-08-14T02:22:50;18.70;72.50
364;DHT22;173;48.718;9.274;2022-08-14T02:25:23;18.70;72.20
364;DHT22;173;48.718;9.274;2022-08-14T02:27:57;18.70;71.90
364;DHT22;173;48.718;9.274;2022-08-14T02:30:29;18.80;72.30
364;DHT22;173;48.718;9.274;2022-08-14T02:33:01;18.70;72.10
364;DHT22;173;48.718;9.274;2022-08-14T02:35:34;18.70;72.80
364;DHT22;173;48.718;9.274;2022-08-14T02:38:08;18.60;72.50
364;DHT22;173;48.718;9.274;2022-08-14T02:40:42;18.60;72.70
364;DHT22;173;48.718;9.274;2022-08-14T02:43:14;18.60;72.50
364;DHT22;173;48.718;9.274;2022-08-14T02:48:18;18.50;73.20
364;DHT22;173;48.718;9.274;2022-08-14T02:50:52;18.40;73.20
364;DHT22;173;48.718;9.274;2022-08-14T02:53:24;18.30;73.90
364;DHT22;173;48.718;9.274;2022-08-14T02:55:58;18.30;73.70
364;DHT22;173;48.718;9.274;2022-08-14T02:58:35;18.20;74.70
364;DHT22;173;48.718;9.274;2022-08-14T03:01:09;18.20;74.60
364;DHT22;173;48.718;9.274;2022-08-14T03:03:42;18.00;75.80
364;DHT22;173;48.718;9.274;2022-08-14T03:06:18;17.80;76.40
364;DHT22;173;48.718;9.274;2022-08-14T03:08:52;17.60;77.10
364;DHT22;173;48.718;9.274;2022-08-14T03:11:25;17.70;77.20
364;DHT22;173;48.718;9.274;2022-08-14T03:13:59;17.70;76.90
364;DHT22;173;48.718;9.274;2022-08-14T03:16:32;17.90;76.40
364;DHT22;173;48.718;9.274;2022-08-14T03:19:05;17.80;77.50
364;DHT22;173;48.718;9.274;2022-08-14T03:21:38;17.60;77.80
364;DHT22;173;48.718;9.274;2022-08-14T03:24:10;17.50;78.10
364;DHT22;173;48.718;9.274;2022-08-14T03:26:44;17.40;78.20
364;DHT22;173;48.718;9.274;2022-08-14T03:29:19;17.40;78.50
364;DHT22;173;48.718;9.274;2022-08-14T03:31:51;17.30;78.50
364;DHT22;173;48.718;9.274;2022-08-14T03:34:26;17.30;78.60
364;DHT22;173;48.718;9.274;2022-08-14T03:36:58;17.30;78.70
364;DHT22;173;48.718;9.274;2022-08-14T03:39:30;17.40;78.70
364;DHT22;173;48.718;9.274;2022-08-14T03:42:02;17.30;78.70
364;DHT22;173;48.718;9.274;2022-08-14T03:44:37;17.30;79.00
364;DHT22;173;48.718;9.274;2022-08-14T03:47:10;17.30;78.80
364;DHT22;173;48.718;9.274;2022-08-14T03:49:43;17.30;79.10
364;DHT22;173;48.718;9.274;2022-08-14T03:52:15;17.30;79.10
364;DHT22;173;48.718;9.274;2022-08-14T03:54:47;17.40;78.90
364;DHT22;173;48.718;9.274;2022-08-14T03:59:51;17.30;79.10
364;DHT22;173;48.718;9.274;2022-08-14T04:02:23;17.40;79.20
364;DHT22;173;48.718;9.274;2022-08-14T04:04:55;17.40;78.90
364;DHT22;173;48.718;9.274;2022-08-14T04:07:28;17.30;79.10
364;DHT22;173;48.718;9.274;2022-08-14T04:10:00;17.10;79.90
364;DHT22;173;48.718;9.274;2022-08-14T04:12:32;17.00;80.50
364;DHT22;173;48.718;9.274;2022-08-14T04:15:06;16.90;81.10
364;DHT22;173;48.718;9.274;2022-08-14T04:17:37;16.80;81.30
364;DHT22;173;48.718;9.274;2022-08-14T04:20:10;16.80;81.30
364;DHT22;173;48.718;9.274;2022-08-14T04:22:43;16.90;81.10
364;DHT22;173;48.718;9.274;2022-08-14T04:25:17;16.90;81.30
364;DHT22;173;48.718;9.274;2022-08-14T04:27:49;17.00;81.20
364;DHT22;173;48.718;9.274;2022-08-14T04:30:23;17.00;81.30
364;DHT22;173;48.718;9.274;2022-08-14T04:32:59;17.00;81.40
364;DHT22;173;48.718;9.274;2022-08-14T04:35:31;17.00;81.30
364;DHT22;173;48.718;9.274;2022-08-14T04:38:12;17.00;81.30
364;DHT22;173;48.718;9.274;2022-08-14T04:41:02;16.90;81.80
364;DHT22;173;48.718;9.274;2022-08-14T04:48:55;17.40;80.10
364;DHT22;173;48.718;9.274;2022-08-14T04:51:29;17.40;80.20
364;DHT22;173;48.718;9.274;2022-08-14T04:54:01;17.50;79.60
364;DHT22;173;48.718;9.274;2022-08-14T05:01:35;18.10;76.90
364;DHT22;173;48.718;9.274;2022-08-14T05:04:11;18.20;75.80
364;DHT22;173;48.718;9.274;2022-08-14T05:06:45;18.20;75.90
364;DHT22;173;48.718;9.274;2022-08-14T05:09:23;18.40;75.40
364;DHT22;173;48.718;9.274;2022-08-14T05:11:56;18.50;75.80
364;DHT22;173;48.718;9.274;2022-08-14T05:14:28;18.50;75.20
364;DHT22;173;48.718;9.274;2022-08-14T05:17:02;18.50;75.00
364;DHT22;173;48.718;9.274;2022-08-14T05:19:34;18.50;74.70
364;DHT22;173;48.718;9.274;2022-08-14T05:22:06;18.60;75.70
364;DHT22;173;48.718;9.274;2022-08-14T05:24:38;18.60;75.90
364;DHT22;173;48.718;9.274;2022-08-14T05:27:10;18.70;75.60
364;DHT22;173;48.718;9.274;2022-08-14T05:29:44;18.80;75.40
364;DHT22;173;48.718;9.274;2022-08-14T05:32:18;19.00;74.90
364;DHT22;173;48.718;9.274;2022-08-14T05:34:50;19.00;74.00
364;DHT22;173;48.718;9.274;2022-08-14T05:37:24;19.10;73.40
364;DHT22;173;48.718;9.274;2022-08-14T05:39:58;19.10;73.90
364;DHT22;173;48.718;9.274;2022-08-14T05:42:30;19.10;73.80
364;DHT22;173;48.718;9.274;2022-08-14T05:45:03;19.00;74.20
364;DHT22;173;48.718;9.274;2022-08-14T05:47:41;19.00;73.80
364;DHT22;173;48.718;9.274;2022-08-14T05:50:14;19.00;74.20
364;DHT22;173;48.718;9.274;2022-08-14T05:52:47;19.10;74.90
364;DHT22;173;48.718;9.274;2022-08-14T05:55:20;19.20;74.90
364;DHT22;173;48.718;9.274;2022-08-14T05:57:54;19.20;73.50
364;DHT22;173;48.718;9.274;2022-08-14T06:00:37;19.20;73.70
364;DHT22;173;48.718;9.274;2022-08-14T06:03:10;19.20;74.40
364;DHT22;173;48.718;9.274;2022-08-14T06:10:58;19.80;71.80
364;DHT22;173;48.718;9.274;2022-08-14T06:13:40;19.70;72.30
364;DHT22;173;48.718;9.274;2022-08-14T06:20:40;20.00;70.20
364;DHT22;173;48.718;9.274;2022-08-14T06:23:12;19.90;71.20
364;DHT22;173;48.718;9.274;2022-08-14T06:25:45;20.10;71.20
364;DHT22;173;48.718;9.274;2022-08-14T06:28:20;20.30;69.70
364;DHT22;173;48.718;9.274;2022-08-14T06:30:54;20.50;69.80
364;DHT22;173;48.718;9.274;2022-08-14T06:33:26;20.80;69.40
364;DHT22;173;48.718;9.274;2022-08-14T06:35:58;21.00;68.50
364;DHT22;173;48.718;9.274;2022-08-14T06:38:30;21.10;68.60
364;DHT22;173;48.718;9.274;2022-08-14T06:43:33;21.70;67.10
364;DHT22;173;48.718;9.274;2022-08-14T06:46:07;21.90;66.10
364;DHT22;173;48.718;9.274;2022-08-14T06:48:41;22.00;66.70
364;DHT22;173;48.718;9.274;2022-08-14T06:51:13;22.20;66.10
364;DHT22;173;48.718;9.274;2022-08-14T06:53:45;22.10;66.50
364;DHT22;173;48.718;9.274;2022-08-14T06:56:17;22.20;65.50
364;DHT22;173;48.718;9.274;2022-08-14T06:58:50;22.40;64.70
364;DHT22;173;48.718;9.274;2022-08-14T07:01:22;22.40;63.40
364;DHT22;173;48.718;9.274;2022-08-14T07:04:12;22.50;63.60
364;DHT22;173;48.718;9.274;2022-08-14T07:07:02;22.70;63.30
364;DHT22;173;48.718;9.274;2022-08-14T07:09:34;23.00;62.40
364;DHT22;173;48.718;9.274;2022-08-14T07:12:07;23.10;61.60
364;DHT22;173;48.718;9.274;2022-08-14T07:14:40;23.20;61.40
364;DHT22;173;48.718;9.274;2022-08-14T07:17:12;23.30;61.70
364;DHT22;173;48.718;9.274;2022-08-14T07:19:44;23.50;60.40
364;DHT22;173;48.718;9.274;2022-08-14T07:22:16;23.60;60.10
364;DHT22;173;48.718;9.274;2022-08-14T07:24:48;23.90;59.40
364;DHT22;173;48.718;9.274;2022-08-14T07:27:20;23.90;58.50
364;DHT22;173;48.718;9.274;2022-08-14T07:29:52;23.90;57.30
364;DHT22;173;48.718;9.274;2022-08-14T07:32:24;24.00;57.90
364;DHT22;173;48.718;9.274;2022-08-14T07:34:56;24.40;57.70
364;DHT22;173;48.718;9.274;2022-08-14T07:37:28;24.90;55.40
364;DHT22;173;48.718;9.274;2022-08-14T07:40:02;25.10;55.60
364;DHT22;173;48.718;9.274;2022-08-14T07:42:35;25.30;54.80
364;DHT22;173;48.718;9.274;2022-08-14T07:45:08;25.60;54.50
364;DHT22;173;48.718;9.274;2022-08-14T07:47:43;25.80;54.50
364;DHT22;173;48.718;9.274;2022-08-14T07:50:17;26.10;52.80
364;DHT22;173;48.718;9.274;2022-08-14T07:52:49;26.00;53.40
364;DHT22;173;48.718;9.274;2022-08-14T07:55:22;26.00;52.00
364;DHT22;173;48.718;9.274;2022-08-14T07:57:54;26.10;53.40
364;DHT22;173;48.718;9.274;2022-08-14T08:02:49;26.30;53.10
364;DHT22;173;48.718;9.274;2022-08-14T08:05:24;26.20;53.00
364;DHT22;173;48.718;9.274;2022-08-14T08:13:07;27.50;48.20
364;DHT22;173;48.718;9.274;2022-08-14T08:15:43;27.20;47.70
364;DHT22;173;48.718;9.274;2022-08-14T08:18:18;27.20;48.70
364;DHT22;173;48.718;9.274;2022-08-14T08:20:52;27.20;49.20
364;DHT22;173;48.718;9.274;2022-08-14T08:23:25;27.30;48.20
364;DHT22;173;48.718;9.274;2022-08-14T08:26:00;27.40;48.40
364;DHT22;173;48.718;9.274;2022-08-14T08:28:32;27.80;47.70
364;DHT22;173;48.718;9.274;2022-08-14T08:31:06;27.80;47.90
364;DHT22;173;48.718;9.274;2022-08-14T08:33:39;27.70;47.80
364;DHT22;173;48.718;9.274;2022-08-14T08:36:12;27.80;47.10
364;DHT22;173;48.718;9.274;2022-08-14T08:38:44;27.90;46.50
364;DHT22;173;48.718;9.274;2022-08-14T08:41:17;27.80;47.20
364;DHT22;173;48.718;9.274;2022-08-14T08:43:51;28.20;46.30
364;DHT22;173;48.718;9.274;2022-08-14T08:46:24;28.40;44.40
364;DHT22;173;48.718;9.274;2022-08-14T08:48:57;28.50;44.00
364;DHT22;173;48.718;9.274;2022-08-14T08:51:32;28.60;45.10
364;DHT22;173;48.718;9.274;2022-08-14T08:54:08;28.80;44.80
364;DHT22;173;48.718;9.274;2022-08-14T08:56:47;29.10;45.20
364;DHT22;173;48.718;9.274;2022-08-14T09:04:33;29.90;42.20
364;DHT22;173;48.718;9.274;2022-08-14T09:07:08;29.80;42.50
364;DHT22;173;48.718;9.274;2022-08-14T09:09:41;29.80;42.30
364;DHT22;173;48.718;9.274;2022-08-14T09:12:19;29.60;42.40
364;DHT22;173;48.718;9.274;2022-08-14T09:16:21;29.60;42.50
364;DHT22;173;48.718;9.274;2022-08-14T09:18:55;29.50;42.50
364;DHT22;173;48.718;9.274;2022-08-14T09:21:28;29.50;43.30
364;DHT22;173;48.718;9.274;2022-08-14T09:24:01;29.90;41.60
364;DHT22;173;48.718;9.274;2022-08-14T09:26:34;30.30;43.40
364;DHT22;173;48.718;9.274;2022-08-14T09:29:09;30.70;41.10
364;DHT22;173;48.718;9.274;2022-08-14T09:31:43;31.10;39.30
364;DHT22;173;48.718;9.274;2022-08-14T09:40:33;31.40;38.90
364;DHT22;173;48.718;9.274;2022-08-14T09:43:28;31.50;39.30
364;DHT22;173;48.718;9.274;2022-08-14T09:46:05;31.90;39.70
364;DHT22;173;48.718;9.274;2022-08-14T09:48:39;31.70;38.80
364;DHT22;173;48.718;9.274;2022-08-14T09:51:20;31.40;38.60
364;DHT22;173;48.718;9.274;2022-08-14T09:56:47;32.00;38.80
364;DHT22;173;48.718;9.274;2022-08-14T09:59:21;32.10;37.40
364;DHT22;173;48.718;9.274;2022-08-14T10:01:54;32.50;36.90
364;DHT22;173;48.718;9.274;2022-08-14T10:04:29;31.90;37.00
364;DHT22;173;48.718;9.274;2022-08-14T10:07:05;31.40;37.40
364;DHT22;173;48.718;9.274;2022-08-14T10:09:48;31.30;37.50
364;DHT22;173;48.718;9.274;2022-08-14T10:12:22;31.60;38.30
364;DHT22;173;48.718;9.274;2022-08-14T10:14:57;31.80;36.70
364;DHT22;173;48.718;9.274;2022-08-14T10:17:31;32.00;37.00
364;DHT22;173;48.718;9.274;2022-08-14T10:20:04;32.10;36.80
364;DHT22;173;48.718;9.274;2022-08-14T10:22:39;32.20;36.10
364;DHT22;173;48.718;9.274;2022-08-14T10:25:14;32.30;36.60
364;DHT22;173;48.718;9.274;2022-08-14T10:27:56;32.30;36.10
364;DHT22;173;48.718;9.274;2022-08-14T10:30:31;32.60;36.10
364;DHT22;173;48.718;9.274;2022-08-14T10:33:04;33.20;34.80
364;DHT22;173;48.718;9.274;2022-08-14T10:38:12;33.20;34.20
364;DHT22;173;48.718;9.274;2022-08-14T10:40:48;32.60;35.40
364;DHT22;173;48.718;9.274;2022-08-14T10:43:25;32.50;34.90
364;DHT22;173;48.718;9.274;2022-08-14T10:46:01;32.80;36.10
364;DHT22;173;48.718;9.274;2022-08-14T10:48:34;33.40;34.50
364;DHT22;173;48.718;9.274;2022-08-14T10:51:09;33.40;34.50
364;DHT22;173;48.718;9.274;2022-08-14T10:53:43;33.60;35.20
364;DHT22;173;48.718;9.274;2022-08-14T10:56:31;33.80;34.40
364;DHT22;173;48.718;9.274;2022-08-14T10:59:04;33.50;33.80
364;DHT22;173;48.718;9.274;2022-08-14T11:01:39;34.10;34.30
364;DHT22;173;48.718;9.274;2022-08-14T11:04:25;34.10;33.80
364;DHT22;173;48.718;9.274;2022-08-14T11:06:57;33.90;32.50
364;DHT22;173;48.718;9.274;2022-08-14T11:09:35;34.10;33.00
364;DHT22;173;48.718;9.274;2022-08-14T11:12:07;34.90;32.80
364;DHT22;173;48.718;9.274;2022-08-14T11:14:41;35.40;32.90
364;DHT22;173;48.718;9.274;2022-08-14T11:17:17;35.50;32.00
364;DHT22;173;48.718;9.274;2022-08-14T11:19:54;35.60;31.20
364;DHT22;173;48.718;9.274;2022-08-14T11:22:29;35.10;31.00
364;DHT22;173;48.718;9.274;2022-08-14T11:25:05;35.00;30.90
364;DHT22;173;48.718;9.274;2022-08-14T11:27:46;35.20;31.60
364;DHT22;173;48.718;9.274;2022-08-14T11:30:26;35.70;31.20
364;DHT22;173;48.718;9.274;2022-08-14T11:33:00;36.00;31.30
364;DHT22;173;48.718;9.274;2022-08-14T11:35:34;36.30;31.90
364;DHT22;173;48.718;9.274;2022-08-14T11:38:09;36.40;30.90
364;DHT22;173;48.718;9.274;2022-08-14T11:40:43;36.50;30.80
364;DHT22;173;48.718;9.274;2022-08-14T11:43:15;37.20;29.40
364;DHT22;173;48.718;9.274;2022-08-14T11:45:49;35.90;29.70
364;DHT22;173;48.718;9.274;2022-08-14T11:48:25;35.90;30.10
364;DHT22;173;48.718;9.274;2022-08-14T11:50:59;35.80;30.90
364;DHT22;173;48.718;9.274;2022-08-14T11:53:33;36.10;31.10
364;DHT22;173;48.718;9.274;2022-08-14T11:56:06;36.50;30.00
364;DHT22;173;48.718;9.274;2022-08-14T11:58:40;36.90;29.40
364;DHT22;173;48.718;9.274;2022-08-14T12:01:15;37.20;28.80
364;DHT22;173;48.718;9.274;2022-08-14T12:03:49;37.30;28.30
364;DHT22;173;48.718;9.274;2022-08-14T12:06:25;37.60;28.20
364;DHT22;173;48.718;9.274;2022-08-14T12:09:06;36.10;28.40
364;DHT22;173;48.718;9.274;2022-08-14T12:11:40;35.90;28.20
364;DHT22;173;48.718;9.274;2022-08-14T12:14:15;35.50;28.60
364;DHT22;173;48.718;9.274;2022-08-14T12:17:06;36.70;29.50
364;DHT22;173;48.718;9.274;2022-08-14T12:19:59;37.40;28.60
364;DHT22;173;48.718;9.274;2022-08-14T12:22:37;37.90;27.60
364;DHT22;173;48.718;9.274;2022-08-14T12:25:13;38.20;27.00
364;DHT22;173;48.718;9.274;2022-08-14T12:27:49;38.30;26.70
364;DHT22;173;48.718;9.274;2022-08-14T12:30:27;38.00;25.10
364;DHT22;173;48.718;9.274;2022-08-14T12:33:30;37.50;25.90
364;DHT22;173;48.718;9.274;2022-08-14T12:36:06;37.20;27.20
364;DHT22;173;48.718;9.274;2022-08-14T12:38:42;38.10;26.70
364;DHT22;173;48.718;9.274;2022-08-14T12:41:18;38.70;25.00
364;DHT22;173;48.718;9.274;2022-08-14T12:43:59;39.10;25.20
364;DHT22;173;48.718;9.274;2022-08-14T12:46:37;39.00;24.80
364;DHT22;173;48.718;9.274;2022-08-14T12:49:14;39.00;25.00
364;DHT22;173;48.718;9.274;2022-08-14T12:52:00;38.90;24.10
364;DHT22;173;48.718;9.274;2022-08-14T12:54:34;39.20;24.70
364;DHT22;173;48.718;9.274;2022-08-14T12:57:14;39.60;23.80
364;DHT22;173;48.718;9.274;2022-08-14T12:59:46;39.90;24.10
364;DHT22;173;48.718;9.274;2022-08-14T13:02:22;40.40;24.10
364;DHT22;173;48.718;9.274;2022-08-14T13:04:56;40.20;23.40
364;DHT22;173;48.718;9.274;2022-08-14T13:07:30;39.90;24.00
364;DHT22;173;48.718;9.274;2022-08-14T13:10:10;38.80;24.80
364;DHT22;173;48.718;9.274;2022-08-14T13:12:42;39.20;24.10
364;DHT22;173;48.718;9.274;2022-08-14T13:15:15;40.10;24.10
364;DHT22;173;48.718;9.274;2022-08-14T13:17:50;40.60;24.00
364;DHT22;173;48.718;9.274;2022-08-14T13:20:26;40.50;23.80
364;DHT22;173;48.718;9.274;2022-08-14T13:23:00;40.00;24.00
364;DHT22;173;48.718;9.274;2022-08-14T13:25:35;39.80;23.40
364;DHT22;173;48.718;9.274;2022-08-14T13:28:11;40.20;23.80
364;DHT22;173;48.718;9.274;2022-08-14T13:33:17;40.00;22.80
364;DHT22;173;48.718;9.274;2022-08-14T13:35:51;40.20;23.30
364;DHT22;173;48.718;9.274;2022-08-14T13:38:28;40.10;23.80
364;DHT22;173;48.718;9.274;2022-08-14T13:41:02;40.30;23.70
364;DHT22;173;48.718;9.274;2022-08-14T13:43:36;40.20;24.00
364;DHT22;173;48.718;9.274;2022-08-14T13:46:08;40.10;23.80
364;DHT22;173;48.718;9.274;2022-08-14T13:48:42;40.50;23.40
364;DHT22;173;48.718;9.274;2022-08-14T13:51:17;40.20;23.20
364;DHT22;173;48.718;9.274;2022-08-14T13:53:55;39.90;23.50
364;DHT22;173;48.718;9.274;2022-08-14T13:56:28;39.90;23.30
364;DHT22;173;48.718;9.274;2022-08-14T13:59:03;40.60;23.60
364;DHT22;173;48.718;9.274;2022-08-14T14:01:36;41.20;23.00
364;DHT22;173;48.718;9.274;2022-08-14T14:04:12;41.10;23.90
364;DHT22;173;48.718;9.274;2022-08-14T14:06:47;41.50;23.20
364;DHT22;173;48.718;9.274;2022-08-14T14:09:30;41.60;22.70
364;DHT22;173;48.718;9.274;2022-08-14T14:12:00;41.40;22.70
364;DHT22;173;48.718;9.274;2022-08-14T14:14:36;41.60;23.00
364;DHT22;173;48.718;9.274;2022-08-14T14:17:11;40.80;22.50
364;DHT22;173;48.718;9.274;2022-08-14T14:19:45;40.80;23.20
364;DHT22;173;48.718;9.274;2022-08-14T14:22:17;41.10;23.10
364;DHT22;173;48.718;9.274;2022-08-14T14:24:52;40.90;23.30
364;DHT22;173;48.718;9.274;2022-08-14T14:27:25;40.00;23.80
364;DHT22;173;48.718;9.274;2022-08-14T14:29:59;39.20;24.50
364;DHT22;173;48.718;9.274;2022-08-14T14:32:33;39.80;25.00
364;DHT22;173;48.718;9.274;2022-08-14T14:35:14;40.20;24.20
364;DHT22;173;48.718;9.274;2022-08-14T14:37:47;40.80;23.30
364;DHT22;173;48.718;9.274;2022-08-14T14:40:21;40.50;22.70
364;DHT22;173;48.718;9.274;2022-08-14T14:42:56;40.10;23.70
364;DHT22;173;48.718;9.274;2022-08-14T14:45:35;40.20;22.90
364;DHT22;173;48.718;9.274;2022-08-14T14:48:09;40.40;24.00
364;DHT22;173;48.718;9.274;2022-08-14T14:50:44;40.60;24.20
364;DHT22;173;48.718;9.274;2022-08-14T14:53:20;40.40;23.40
364;DHT22;173;48.718;9.274;2022-08-14T14:55:55;39.50;24.00
364;DHT22;173;48.718;9.274;2022-08-14T14:58:28;39.60;24.10
364;DHT22;173;48.718;9.274;2022-08-14T15:03:39;40.00;23.10
364;DHT22;173;48.718;9.274;2022-08-14T15:06:12;39.80;23.70
364;DHT22;173;48.718;9.274;2022-08-14T15:08:44;39.70;24.70
364;DHT22;173;48.718;9.274;2022-08-14T15:11:19;39.50;24.30
364;DHT22;173;48.718;9.274;2022-08-14T15:13:53;39.50;24.80
364;DHT22;173;48.718;9.274;2022-08-14T15:16:25;39.60;25.70
364;DHT22;173;48.718;9.274;2022-08-14T15:18:57;39.00;24.90
364;DHT22;173;48.718;9.274;2022-08-14T15:21:32;38.30;26.10
364;DHT22;173;48.718;9.274;2022-08-14T15:24:06;38.10;25.30
364;DHT22;173;48.718;9.274;2022-08-14T15:26:38;37.80;25.80
364;DHT22;173;48.718;9.274;2022-08-14T15:29:11;37.60;27.20
364;DHT22;173;48.718;9.274;2022-08-14T15:31:43;37.60;26.90
364;DHT22;173;48.718;9.274;2022-08-14T15:34:15;37.80;27.00
364;DHT22;173;48.718;9.274;2022-08-14T15:36:49;38.40;25.80
364;DHT22;173;48.718;9.274;2022-08-14T15:39:21;38.50;26.00
364;DHT22;173;48.718;9.274;2022-08-14T15:41:53;39.10;24.30
364;DHT22;173;48.718;9.274;2022-08-14T15:44:27;39.00;24.20
364;DHT22;173;48.718;9.274;2022-08-14T15:47:00;39.40;25.00
364;DHT22;173;48.718;9.274;2022-08-14T15:49:36;39.50;24.20
364;DHT22;173;48.718;9.274;2022-08-14T15:52:10;39.10;24.70
364;DHT22;173;48.718;9.274;2022-08-14T15:54:42;38.80;25.40
364;DHT22;173;48.718;9.274;2022-08-14T15:57:14;38.30;23.70
364;DHT22;173;48.718;9.274;2022-08-14T15:59:47;37.90;26.00
364;DHT22;173;48.718;9.274;2022-08-14T16:02:37;37.60;27.50
364;DHT22;173;48.718;9.274;2022-08-14T16:05:09;37.30;26.90
364;DHT22;173;48.718;9.274;2022-08-14T16:08:43;37.20;26.80
364;DHT22;173;48.718;9.274;2022-08-14T16:11:17;37.10;25.80
364;DHT22;173;48.718;9.274;2022-08-14T16:13:49;37.40;26.10
364;DHT22;173;48.718;9.274;2022-08-14T16:16:27;38.10;24.60
364;DHT22;173;48.718;9.274;2022-08-14T16:19:10;38.50;23.80
364;DHT22;173;48.718;9.274;2022-08-14T16:21:39;38.40;23.80
364;DHT22;173;48.718;9.274;2022-08-14T16:24:12;38.20;23.90
364;DHT22;173;48.718;9.274;2022-08-14T16:26:47;38.10;23.60
364;DHT22;173;48.718;9.274;2022-08-14T16:29:20;37.90;25.00
364;DHT22;173;48.718;9.274;2022-08-14T16:31:53;37.40;25.20
364;DHT22;173;48.718;9.274;2022-08-14T16:34:30;36.90;25.70
364;DHT22;173;48.718;9.274;2022-08-14T16:37:02;36.20;28.30
364;DHT22;173;48.718;9.274;2022-08-14T16:39:38;35.60;28.80
364;DHT22;173;48.718;9.274;2022-08-14T16:42:11;35.20;30.20
364;DHT22;173;48.718;9.274;2022-08-14T16:44:44;35.10;29.00
364;DHT22;173;48.718;9.274;2022-08-14T16:47:17;35.50;30.40
364;DHT22;173;48.718;9.274;2022-08-14T16:49:49;36.20;29.90
364;DHT22;173;48.718;9.274;2022-08-14T16:52:23;36.90;29.20
364;DHT22;173;48.718;9.274;2022-08-14T16:54:58;37.10;28.20
364;DHT22;173;48.718;9.274;2022-08-14T16:57:30;37.10;29.70
364;DHT22;173;48.718;9.274;2022-08-14T17:00:04;36.70;28.00
364;DHT22;173;48.718;9.274;2022-08-14T17:02:40;36.00;27.60
364;DHT22;173;48.718;9.274;2022-08-14T17:05:22;35.40;31.60
364;DHT22;173;48.718;9.274;2022-08-14T17:08:07;34.70;34.40
364;DHT22;173;48.718;9.274;2022-08-14T17:13:25;33.10;37.60
364;DHT22;173;48.718;9.274;2022-08-14T17:16:10;32.60;38.40
364;DHT22;173;48.718;9.274;2022-08-14T17:18:50;32.10;39.20
364;DHT22;173;48.718;9.274;2022-08-14T17:21:29;31.70;39.70
364;DHT22;173;48.718;9.274;2022-08-14T17:24:10;31.20;41.20
364;DHT22;173;48.718;9.274;2022-08-14T17:26:49;30.70;40.50
364;DHT22;173;48.718;9.274;2022-08-14T17:29:25;30.50;41.20
364;DHT22;173;48.718;9.274;2022-08-14T17:32:05;30.30;41.80
364;DHT22;173;48.718;9.274;2022-08-14T17:34:55;30.10;42.00
364;DHT22;173;48.718;9.274;2022-08-14T17:37:31;29.90;42.10
364;DHT22;173;48.718;9.274;2022-08-14T17:40:18;29.70;42.40
364;DHT22;173;48.718;9.274;2022-08-14T17:43:00;29.60;41.80
364;DHT22;173;48.718;9.274;2022-08-14T17:48:27;29.50;42.30
364;DHT22;173;48.718;9.274;2022-08-14T17:51:03;29.40;41.90
364;DHT22;173;48.718;9.274;2022-08-14T17:53:38;29.40;43.90
364;DHT22;173;48.718;9.274;2022-08-14T17:56:11;29.30;44.30
364;DHT22;173;48.718;9.274;2022-08-14T17:59:54;29.20;44.10
364;DHT22;173;48.718;9.274;2022-08-14T18:02:31;29.10;43.60
364;DHT22;173;48.718;9.274;2022-08-14T18:05:05;29.00;43.10
364;DHT22;173;48.718;9.274;2022-08-14T18:07:38;28.90;43.60
364;DHT22;173;48.718;9.274;2022-08-14T18:10:11;28.80;43.00
364;DHT22;173;48.718;9.274;2022-08-14T18:12:46;28.80;42.90
364;DHT22;173;48.718;9.274;2022-08-14T18:15:18;28.60;43.80
364;DHT22;173;48.718;9.274;2022-08-14T18:17:50;28.60;43.60
364;DHT22;173;48.718;9.274;2022-08-14T18:20:23;28.60;43.60
364;DHT22;173;48.718;9.274;2022-08-14T18:22:55;28.50;44.10
364;DHT22;173;48.718;9.274;2022-08-14T18:25:29;28.70;44.30
364;DHT22;173;48.718;9.274;2022-08-14T18:28:07;28.80;40.40
364;DHT22;173;48.718;9.274;2022-08-14T18:30:41;29.00;39.00
364;DHT22;173;48.718;9.274;2022-08-14T18:33:16;29.30;37.50
364;DHT22;173;48.718;9.274;2022-08-14T18:38:30;29.50;37.00